Time;durP1;ratioP1;P1;durP2;ratioP2;P2;SDS_P1;SDS_P2;PMS_P1;PMS_P2;Temp;Humidity;BMP_temperature;BMP_pressure;BME280_temperature;BME280_humidity;BME280_pressure;Samples;Min_cycle;Max_cycle;Signal;HPM_P1;HPM_P2
2021/04/28 00:00:33;;;;;;;12.93;5.80;;;;;;;19.77;48.17;100063.66;2072603;28;20507;-63
2021/04/28 00:01:33;;;;;;;14.43;7.30;;;;;;;19.77;48.18;100062.81;2072573;28;20670;-63
2021/04/28 00:02:34;;;;;;;11.50;6.57;;;;;;;19.78;48.22;100070.75;2072676;28;20029;-63
2021/04/28 00:03:35;;;;;;;10.13;6.00;;;;;;;19.76;48.33;100070.13;2070190;28;20488;-63
2021/04/28 00:04:35;;;;;;;13.73;6.32;;;;;;;19.75;48.43;100063.03;2070261;28;20493;-63
2021/04/28 00:05:36;;;;;;;10.27;5.97;;;;;;;19.75;48.25;100054.03;2069394;28;20061;-63
2021/04/28 00:06:37;;;;;;;10.23;6.07;;;;;;;19.74;48.39;100058.66;2069943;28;20385;-63
2021/04/28 00:07:38;;;;;;;10.50;5.45;;;;;;;19.74;47.94;100055.09;2072198;28;20033;-63
2021/04/28 00:08:38;;;;;;;13.85;6.13;;;;;;;19.73;48.34;100059.69;2072616;28;20037;-63
2021/04/28 00:09:38;;;;;;;12.38;6.35;;;;;;;19.75;48.34;100060.31;2072506;28;20469;-63
2021/04/28 00:10:42;;;;;;;13.27;6.43;;;;;;;19.66;46.67;100058.06;2072619;28;20049;-60
2021/04/28 00:11:43;;;;;;;17.88;4.80;;;;;;;19.27;47.30;100059.00;2072740;28;20100;-63
2021/04/28 00:12:44;;;;;;;14.95;5.28;;;;;;;19.37;47.56;100060.22;2072404;28;20473;-61
2021/04/28 00:13:45;;;;;;;9.95;5.43;;;;;;;19.56;47.21;100052.25;2071996;28;20255;-63
2021/04/28 00:14:45;;;;;;;15.07;5.82;;;;;;;19.69;47.32;100054.94;2072536;28;20026;-61
2021/04/28 00:15:48;;;;;;;15.65;7.88;;;;;;;19.73;47.23;100051.53;2072590;28;20106;-62
2021/04/28 00:16:49;;;;;;;15.25;6.88;;;;;;;19.77;47.13;100054.66;2071218;28;20412;-63
2021/04/28 00:17:52;;;;;;;15.35;7.55;;;;;;;19.77;47.00;100051.94;2072448;28;20053;-62
2021/04/28 00:18:52;;;;;;;12.98;7.03;;;;;;;19.77;47.05;100041.94;2066154;28;20085;-63
2021/04/28 00:19:53;;;;;;;15.10;7.47;;;;;;;19.80;47.02;100054.25;2072181;28;20096;-62
2021/04/28 00:20:54;;;;;;;16.80;9.32;;;;;;;19.73;47.11;100048.00;2072070;28;20026;-62
2021/04/28 00:21:55;;;;;;;17.77;8.43;;;;;;;19.75;47.07;100048.63;2072283;28;20057;-63
2021/04/28 00:22:55;;;;;;;15.68;8.10;;;;;;;19.72;47.18;100041.72;2072077;28;20056;-62
2021/04/28 00:23:56;;;;;;;13.98;7.82;;;;;;;19.76;47.27;100039.44;2070340;28;20041;-63
2021/04/28 00:24:57;;;;;;;13.13;7.30;;;;;;;19.73;47.33;100040.69;2070016;28;20034;-63
2021/04/28 00:25:57;;;;;;;15.70;7.35;;;;;;;19.72;47.42;100038.19;2069417;28;20104;-63
2021/04/28 00:26:58;;;;;;;14.45;7.20;;;;;;;19.72;47.27;100046.31;2069291;28;20037;-63
2021/04/28 00:27:58;;;;;;;17.58;10.10;;;;;;;19.69;47.24;100039.47;2072661;28;20018;-63
2021/04/28 00:28:59;;;;;;;16.35;8.82;;;;;;;19.70;47.65;100035.69;2071828;28;20517;-63
2021/04/28 00:30:01;;;;;;;18.02;8.65;;;;;;;19.68;47.21;100036.97;2072569;28;20054;-63
2021/04/28 00:31:02;;;;;;;16.33;9.60;;;;;;;19.68;47.28;100043.25;2071556;28;20038;-63
2021/04/28 00:32:03;;;;;;;17.35;11.20;;;;;;;19.64;47.30;100033.84;2071902;28;20034;-63
2021/04/28 00:33:04;;;;;;;17.00;10.02;;;;;;;19.67;47.15;100032.59;2072424;28;20358;-61
2021/04/28 00:34:04;;;;;;;22.42;11.55;;;;;;;19.64;47.25;100033.03;2072601;28;20025;-63
2021/04/28 00:35:08;;;;;;;22.23;11.35;;;;;;;19.61;47.29;100028.84;2072352;28;20084;-63
2021/04/28 00:36:08;;;;;;;18.67;10.60;;;;;;;19.63;47.53;100036.78;2087474;28;20562;-63
2021/04/28 00:37:09;;;;;;;16.58;10.15;;;;;;;19.62;47.70;100030.50;2087272;28;20036;-61
2021/04/28 00:38:10;;;;;;;18.02;10.07;;;;;;;19.64;47.18;100028.41;2072350;28;20678;-63
2021/04/28 00:39:10;;;;;;;19.67;11.18;;;;;;;19.64;47.31;100023.00;2072521;28;20046;-63
2021/04/28 00:40:32;;;;;;;18.30;11.73;;;;;;;19.61;47.35;100028.00;2072290;28;20030;-63
2021/04/28 00:41:33;;;;;;;20.73;11.68;;;;;;;19.61;47.40;100019.88;2072486;28;20038;-63
2021/04/28 00:42:34;;;;;;;22.45;12.68;;;;;;;19.59;47.36;100024.69;2071594;28;20022;-63
2021/04/28 00:43:36;;;;;;;20.77;11.60;;;;;;;19.60;47.37;100021.75;2061444;28;20035;-63
2021/04/28 00:44:37;;;;;;;19.48;12.45;;;;;;;19.56;47.37;100025.09;2071950;28;20041;-63
2021/04/28 00:45:38;;;;;;;19.35;11.43;;;;;;;19.58;47.43;100017.59;2071222;28;20042;-63
2021/04/28 00:46:40;;;;;;;19.90;12.27;;;;;;;19.60;47.31;100015.50;2069333;28;20042;-63
2021/04/28 00:47:40;;;;;;;21.17;12.93;;;;;;;19.60;47.22;100010.88;2071743;28;20030;-63
2021/04/28 00:48:42;;;;;;;22.88;13.15;;;;;;;19.59;47.42;100013.81;2072357;28;20030;-63
2021/04/28 00:49:42;;;;;;;22.73;13.68;;;;;;;19.54;47.25;100014.47;2072443;28;20109;-63
2021/04/28 00:50:47;;;;;;;22.95;13.75;;;;;;;19.52;47.07;100011.97;2071567;28;20523;-63
2021/04/28 00:51:48;;;;;;;25.10;13.93;;;;;;;19.51;47.32;100018.44;2072181;28;20515;-63
2021/04/28 00:52:50;;;;;;;24.23;13.25;;;;;;;19.54;47.32;100019.88;2088033;28;20028;-61
2021/04/28 00:53:50;;;;;;;23.40;12.93;;;;;;;19.52;47.32;100016.56;2079883;28;20063;-63
2021/04/28 00:54:51;;;;;;;21.33;13.48;;;;;;;19.56;47.20;100009.66;2071598;28;20042;-63
2021/04/28 00:55:54;;;;;;;21.58;13.50;;;;;;;19.57;47.37;100010.47;2071754;28;20084;-63
2021/04/28 00:56:57;;;;;;;23.77;13.65;;;;;;;19.54;47.42;100005.47;2070328;28;20129;-63
2021/04/28 00:57:58;;;;;;;23.48;13.95;;;;;;;19.50;47.36;100005.06;2069648;28;20185;-63
2021/04/28 00:58:58;;;;;;;21.67;13.52;;;;;;;19.49;47.38;100009.63;2072324;28;20419;-63
2021/04/28 01:00:01;;;;;;;21.88;14.07;;;;;;;19.48;47.42;100001.75;2071629;28;20034;-63
2021/04/28 01:01:02;;;;;;;23.63;13.57;;;;;;;19.50;47.35;100005.91;2063610;28;20042;-63
2021/04/28 01:02:03;;;;;;;25.65;14.82;;;;;;;19.47;47.35;99997.34;2071717;28;20048;-63
2021/04/28 01:03:10;;;;;;;22.63;14.40;;;;;;;19.46;47.34;99998.41;2071939;28;20041;-63
2021/04/28 01:04:10;;;;;;;24.38;14.95;;;;;;;19.45;47.15;100000.28;2069530;28;20026;-63
2021/04/28 01:05:13;;;;;;;23.25;15.05;;;;;;;19.44;47.47;100001.31;2069599;28;20033;-63
2021/04/28 01:06:13;;;;;;;21.90;14.55;;;;;;;19.44;47.26;99995.06;2069918;28;20109;-63
2021/04/28 01:07:17;;;;;;;27.05;15.15;;;;;;;19.45;47.34;99994.84;2071066;28;20042;-63
2021/04/28 01:08:19;;;;;;;26.48;15.20;;;;;;;19.45;47.24;99992.13;2063604;28;20052;-63
2021/04/28 01:09:20;;;;;;;26.25;15.07;;;;;;;19.48;47.34;99989.00;2063718;28;20034;-63
2021/04/28 01:10:35;;;;;;;23.92;14.40;;;;;;;19.47;47.49;99991.94;2063490;28;20061;-63
2021/04/28 01:11:37;;;;;;;28.65;14.50;;;;;;;19.46;47.60;99993.81;2061009;28;20030;-63
2021/04/28 01:12:39;;;;;;;21.23;13.45;;;;;;;19.44;47.41;99990.47;2067879;28;20048;-63
2021/04/28 01:13:41;;;;;;;23.90;13.50;;;;;;;19.49;47.53;99992.50;2071003;28;20453;-63
2021/04/28 01:14:42;;;;;;;20.90;13.57;;;;;;;19.48;47.50;99991.72;2065749;28;20030;-63
2021/04/28 01:15:43;;;;;;;23.95;13.98;;;;;;;19.46;47.54;99991.09;2071657;28;20040;-63
2021/04/28 01:16:48;;;;;;;22.70;14.80;;;;;;;19.42;47.42;99986.31;2070912;28;20389;-63
2021/04/28 01:17:49;;;;;;;27.08;14.45;;;;;;;19.42;47.49;99986.31;2071595;28;20036;-63
2021/04/28 01:18:50;;;;;;;21.50;13.65;;;;;;;19.39;47.44;99986.72;2072367;28;20038;-63
2021/04/28 01:19:53;;;;;;;24.15;15.00;;;;;;;19.41;47.50;99993.63;2070085;28;20133;-63
2021/04/28 01:20:55;;;;;;;24.08;13.20;;;;;;;19.40;47.66;99985.69;2063086;28;20023;-62
2021/04/28 01:21:56;;;;;;;20.83;12.75;;;;;;;19.39;47.54;99984.84;2063372;28;20027;-63
2021/04/28 01:22:58;;;;;;;24.77;13.65;;;;;;;19.43;47.56;99990.69;2061428;28;20453;-63
2021/04/28 01:23:59;;;;;;;24.88;14.13;;;;;;;19.42;47.58;99983.59;2057815;28;20133;-63
2021/04/28 01:25:01;;;;;;;24.90;14.05;;;;;;;19.39;47.69;99986.72;2064484;28;20026;-63
2021/04/28 01:26:03;;;;;;;20.50;12.85;;;;;;;19.40;47.57;99986.50;2081036;28;20025;-63
2021/04/28 01:27:15;;;;;;;22.88;15.18;;;;;;;19.40;47.46;99986.50;2068654;28;20905;-63
2021/04/28 01:28:23;;;;;;;20.73;13.15;;;;;;;19.42;47.50;99980.88;2059057;28;20046;-63
2021/04/28 01:29:27;;;;;;;21.98;13.00;;;;;;;19.41;47.55;99977.31;2073760;28;20025;-63
2021/04/28 01:30:31;;;;;;;25.05;14.07;;;;;;;19.43;47.32;99982.53;2072805;28;20080;-63
2021/04/28 01:31:33;;;;;;;23.13;13.20;;;;;;;19.42;47.36;99983.59;2070421;28;20046;-63
2021/04/28 01:32:37;;;;;;;26.73;14.98;;;;;;;19.39;47.46;99981.31;2072789;28;20089;-63
2021/04/28 01:33:37;;;;;;;23.08;14.65;;;;;;;19.36;47.01;99981.72;2072463;28;20081;-63
2021/04/28 01:34:42;;;;;;;24.70;14.52;;;;;;;19.36;47.30;99984.44;2069293;28;20038;-63
2021/04/28 01:35:46;;;;;;;26.48;14.73;;;;;;;19.34;47.38;99981.94;2073651;28;20049;-62
2021/04/28 01:36:48;;;;;;;26.23;15.25;;;;;;;19.33;47.47;99980.28;2073277;28;20029;-63
2021/04/28 01:37:49;;;;;;;25.25;14.90;;;;;;;19.30;47.55;99980.69;2073101;28;20092;-63
2021/04/28 01:39:04;;;;;;;23.35;14.43;;;;;;;19.31;47.37;99986.97;2072880;28;20029;-63
2021/04/28 01:40:07;;;;;;;23.05;14.07;;;;;;;19.30;47.35;99979.88;2073166;28;20123;-63
2021/04/28 01:41:08;;;;;;;27.98;14.32;;;;;;;19.31;47.54;99976.09;2072856;28;20030;-63
2021/04/28 01:42:13;;;;;;;22.55;14.27;;;;;;;19.30;47.51;99977.16;2059912;28;20072;-63
2021/04/28 01:43:14;;;;;;;26.67;14.10;;;;;;;19.27;47.54;99975.69;2057084;28;20018;-63
2021/04/28 01:44:21;;;;;;;23.15;13.05;;;;;;;19.33;47.35;99982.16;2062439;28;20062;-63
2021/04/28 01:45:22;;;;;;;22.50;13.00;;;;;;;19.31;47.36;99982.38;2070532;28;20030;-63
2021/04/28 01:46:27;;;;;;;24.23;13.43;;;;;;;19.29;47.68;99979.03;2071064;28;20053;-63
2021/04/28 01:47:29;;;;;;;22.90;12.13;;;;;;;19.31;47.52;99982.38;2071179;28;20041;-63
2021/04/28 01:48:34;;;;;;;23.33;13.43;;;;;;;19.33;47.53;99980.28;2065245;28;20038;-64
2021/04/28 01:49:36;;;;;;;23.92;12.70;;;;;;;19.32;47.62;99980.47;2064354;28;20077;-64
2021/04/28 01:50:38;;;;;;;23.15;13.05;;;;;;;19.31;47.51;99984.25;2079559;28;20579;-64
2021/04/28 01:51:40;;;;;;;21.85;12.73;;;;;;;19.33;47.62;99984.88;2088906;28;20049;-64
2021/04/28 01:52:43;;;;;;;25.50;13.80;;;;;;;19.30;47.38;99977.16;2073472;28;20108;-63
2021/04/28 01:53:43;;;;;;;21.80;12.85;;;;;;;19.30;47.42;99980.69;2073713;28;20042;-63
2021/04/28 01:54:47;;;;;;;21.33;12.27;;;;;;;19.29;47.61;99981.75;2072729;28;20125;-63
2021/04/28 01:55:52;;;;;;;20.42;12.43;;;;;;;19.28;47.53;99981.97;2072659;28;20038;-63
2021/04/28 01:57:11;;;;;;;22.23;12.20;;;;;;;19.26;47.77;99976.78;2071301;28;20050;-63
2021/04/28 01:58:27;;;;;;;22.42;11.38;;;;;;;19.27;47.67;99980.31;2073517;28;20030;-63
2021/04/28 01:59:30;;;;;;;19.95;12.48;;;;;;;19.26;47.69;99981.38;2072927;28;20034;-63
2021/04/28 02:00:37;;;;;;;19.10;11.43;;;;;;;19.23;47.89;99982.63;2071875;28;20049;-63
2021/04/28 02:01:37;;;;;;;22.95;11.48;;;;;;;19.24;48.06;99986.16;2068331;28;20489;-63
2021/04/28 02:02:39;;;;;;;22.60;12.00;;;;;;;19.24;47.71;99986.16;2072693;28;20112;-63
2021/04/28 02:03:41;;;;;;;19.80;11.10;;;;;;;19.29;47.65;99981.75;2072527;28;20076;-63
2021/04/28 02:04:42;;;;;;;17.30;10.82;;;;;;;19.29;47.87;99983.63;2077685;28;20986;-63
2021/04/28 02:05:43;;;;;;;19.05;11.50;;;;;;;19.28;48.04;99992.81;2070391;28;20478;-63
2021/04/28 02:06:45;;;;;;;19.98;11.23;;;;;;;19.25;48.18;99985.97;2065121;28;20022;-63
2021/04/28 02:07:46;;;;;;;19.52;10.55;;;;;;;19.28;48.17;99981.97;2072477;28;20042;-63
2021/04/28 02:08:47;;;;;;;18.58;10.43;;;;;;;19.28;48.32;99979.25;2072026;28;20034;-63
2021/04/28 02:09:50;;;;;;;14.13;9.57;;;;;;;19.27;48.28;99983.03;2072857;28;20438;-63
2021/04/28 02:11:01;;;;;;;19.25;11.50;;;;;;;19.27;48.03;99985.75;2072674;28;20030;-63
2021/04/28 02:12:04;;;;;;;20.17;11.20;;;;;;;19.29;47.85;99983.63;2064858;28;20758;-63
2021/04/28 02:13:09;;;;;;;17.60;11.15;;;;;;;19.29;48.01;99991.75;2064882;28;20033;-63
2021/04/28 02:14:15;;;;;;;24.42;11.70;;;;;;;19.28;47.98;99981.97;2081059;28;20603;-63
2021/04/28 02:15:36;;;;;;;18.77;11.55;;;;;;;19.28;48.09;99987.38;2074954;28;20034;-63
2021/04/28 02:16:40;;;;;;;20.58;11.00;;;;;;;19.30;47.76;99985.28;2056759;28;20023;-63
2021/04/28 02:17:44;;;;;;;21.58;11.65;;;;;;;19.29;47.93;99987.16;2056766;28;20042;-63
2021/04/28 02:18:45;;;;;;;18.83;10.88;;;;;;;19.30;48.25;99988.84;2066339;28;20030;-63
2021/04/28 02:19:47;;;;;;;22.77;12.15;;;;;;;19.32;47.89;99986.75;2080419;28;20072;-63
2021/04/28 02:20:49;;;;;;;19.65;10.30;;;;;;;19.29;48.03;99984.47;2077769;28;20027;-63
2021/04/28 02:22:19;;;;;;;17.77;10.25;;;;;;;19.29;48.51;99989.03;2056036;28;20116;-63
2021/04/28 02:23:27;;;;;;;18.75;10.48;;;;;;;19.28;48.24;99985.50;2073246;28;20397;-63
2021/04/28 02:24:28;;;;;;;18.17;11.35;;;;;;;19.28;48.11;99987.38;2071202;28;20438;-63
2021/04/28 02:25:29;;;;;;;16.95;9.82;;;;;;;19.25;48.01;99983.25;2070756;28;20100;-63
2021/04/28 02:26:38;;;;;;;16.70;9.93;;;;;;;19.25;48.14;99985.97;2069927;28;20149;-63
2021/04/28 02:27:40;;;;;;;16.65;9.60;;;;;;;19.27;48.43;99985.75;2072773;28;20065;-63
2021/04/28 02:28:41;;;;;;;17.25;10.07;;;;;;;19.27;48.31;99989.25;2077981;28;20519;-63
2021/04/28 02:29:42;;;;;;;14.82;9.23;;;;;;;19.26;48.12;99984.06;2056664;28;20045;-63
2021/04/28 02:30:43;;;;;;;18.35;9.45;;;;;;;19.28;48.12;99987.38;2078278;28;20021;-63
2021/04/28 02:31:43;;;;;;;16.17;9.23;;;;;;;19.26;48.56;99984.06;2088986;28;20108;-63
2021/04/28 02:32:51;;;;;;;16.75;9.57;;;;;;;19.27;48.27;99989.25;2072425;28;20516;-63
2021/04/28 02:34:10;;;;;;;14.90;8.93;;;;;;;19.28;48.44;99988.22;2070149;28;20037;-62
2021/04/28 02:35:35;;;;;;;17.30;9.40;;;;;;;19.22;48.20;99994.53;2072523;28;20034;-63
2021/04/28 02:36:50;;;;;;;16.35;9.00;;;;;;;19.24;48.19;99988.88;2072352;28;20097;-63
2021/04/28 02:38:34;;;;;;;16.40;9.27;;;;;;;19.26;48.27;99992.22;2041752;29;20054;-63
2021/04/28 02:39:45;;;;;;;15.77;9.35;;;;;;;19.26;48.26;99993.06;2039525;29;20028;-62
2021/04/28 02:40:46;;;;;;;13.88;8.82;;;;;;;19.26;48.30;99989.50;2052192;28;20525;-61
2021/04/28 02:41:48;;;;;;;17.92;9.95;;;;;;;19.24;48.28;99991.59;2064186;28;20452;-62
2021/04/28 02:42:49;;;;;;;17.88;9.95;;;;;;;19.27;47.92;99999.31;2072314;28;20038;-62
2021/04/28 02:43:52;;;;;;;16.05;9.43;;;;;;;19.28;48.24;100004.50;2071149;28;20062;-62
2021/04/28 02:44:58;;;;;;;20.58;8.60;;;;;;;19.25;48.10;99990.56;2069679;28;20108;-62
2021/04/28 02:46:01;;;;;;;16.92;9.82;;;;;;;19.25;48.33;99998.69;2066380;28;20046;-61
2021/04/28 02:47:05;;;;;;;16.13;9.38;;;;;;;19.26;48.47;99997.66;2082850;28;20086;-62
2021/04/28 02:48:07;;;;;;;14.50;8.38;;;;;;;19.24;48.41;99997.03;2080831;28;20041;-62
2021/04/28 02:49:15;;;;;;;15.13;8.85;;;;;;;19.26;47.92;100005.78;2080255;28;20029;-62
2021/04/28 02:50:19;;;;;;;14.30;8.80;;;;;;;19.28;48.33;100003.66;2084967;28;20037;-61
2021/04/28 02:51:34;;;;;;;13.90;8.95;;;;;;;19.26;48.50;100000.34;2073077;28;20526;-61
2021/04/28 02:52:36;;;;;;;16.70;8.98;;;;;;;19.25;48.59;100009.53;2072316;28;20026;-61
2021/04/28 02:53:41;;;;;;;16.52;8.48;;;;;;;19.22;48.53;100010.78;2072470;28;20064;-61
2021/04/28 02:54:43;;;;;;;14.65;8.55;;;;;;;19.23;48.52;100004.31;2072958;28;20062;-61
2021/04/28 02:55:46;;;;;;;17.25;8.32;;;;;;;19.24;48.23;100016.84;2072489;28;20029;-62
2021/04/28 02:56:54;;;;;;;14.88;8.15;;;;;;;19.23;48.66;100009.75;2059718;28;20035;-61
2021/04/28 02:57:56;;;;;;;14.18;8.32;;;;;;;19.26;48.68;100013.94;2063600;28;20061;-61
2021/04/28 02:58:59;;;;;;;15.07;8.50;;;;;;;19.27;48.22;100015.59;2064396;28;20072;-61
2021/04/28 03:00:07;;;;;;;16.48;8.80;;;;;;;19.25;48.35;100021.22;2072540;28;20025;-61
2021/04/28 03:01:09;;;;;;;14.85;8.85;;;;;;;19.24;48.26;100010.59;2072292;28;20069;-61
2021/04/28 03:02:11;;;;;;;13.55;7.95;;;;;;;19.25;48.31;100015.81;2064226;28;20084;-62
2021/04/28 03:03:15;;;;;;;13.82;8.20;;;;;;;19.26;48.37;100008.50;2067505;28;20030;-61
2021/04/28 03:04:19;;;;;;;15.35;8.38;;;;;;;19.23;48.06;100012.47;2071365;28;20034;-62
2021/04/28 03:05:52;;;;;;;15.73;8.38;;;;;;;19.24;47.69;100019.56;2062385;28;20176;-61
2021/04/28 03:07:01;;;;;;;16.27;9.73;;;;;;;19.27;47.52;100018.31;2070863;28;20101;-62
2021/04/28 03:08:02;;;;;;;16.92;9.48;;;;;;;19.26;47.67;100014.75;2071778;28;20426;-61
2021/04/28 03:09:05;;;;;;;13.20;8.65;;;;;;;19.26;47.85;100012.03;2072811;28;20109;-62
2021/04/28 03:10:07;;;;;;;16.42;9.13;;;;;;;19.23;48.22;100017.91;2073126;28;20034;-61
2021/04/28 03:11:11;;;;;;;14.48;8.57;;;;;;;19.25;47.91;100017.69;2071696;28;20026;-62
2021/04/28 03:12:14;;;;;;;14.73;8.10;;;;;;;19.24;48.06;100018.72;2072330;28;20037;-61
2021/04/28 03:13:21;;;;;;;13.30;8.55;;;;;;;19.26;47.88;100030.22;2072328;28;20034;-61
2021/04/28 03:14:22;;;;;;;13.73;8.35;;;;;;;19.24;47.88;100016.84;2064030;28;20113;-62
2021/04/28 03:15:23;;;;;;;15.18;9.43;;;;;;;19.24;48.05;100029.59;2080231;28;20022;-61
2021/04/28 03:16:27;;;;;;;14.15;8.35;;;;;;;19.24;48.06;100033.13;2075614;28;20128;-62
2021/04/28 03:17:28;;;;;;;14.77;8.55;;;;;;;19.23;47.98;100026.03;2075630;28;20018;-61
2021/04/28 03:18:32;;;;;;;12.18;7.57;;;;;;;19.22;47.51;100032.50;2079273;28;20175;-62
2021/04/28 03:19:34;;;;;;;14.57;9.23;;;;;;;19.26;47.71;100032.91;2080319;28;20084;-62
2021/04/28 03:20:36;;;;;;;15.40;8.05;;;;;;;19.23;47.83;100039.59;2076045;28;20048;-62
2021/04/28 03:21:43;;;;;;;14.35;8.15;;;;;;;19.23;47.70;100031.47;2072098;28;20102;-61
2021/04/28 03:22:45;;;;;;;15.20;8.50;;;;;;;19.23;47.87;100033.34;2072128;28;20045;-61
2021/04/28 03:23:47;;;;;;;13.35;8.25;;;;;;;19.24;47.79;100033.13;2072203;28;20543;-62
2021/04/28 03:24:47;;;;;;;15.77;8.13;;;;;;;19.22;48.01;100035.22;2068762;28;20068;-62
2021/04/28 03:25:48;;;;;;;14.82;8.15;;;;;;;19.23;47.94;100030.63;2079555;28;20767;-62
2021/04/28 03:26:55;;;;;;;15.63;8.55;;;;;;;19.25;47.56;100042.09;2071463;28;20050;-61
2021/04/28 03:27:57;;;;;;;13.80;8.57;;;;;;;19.22;47.65;100035.22;2076463;28;20115;-61
2021/04/28 03:28:58;;;;;;;16.60;8.63;;;;;;;19.23;48.24;100044.19;2080165;28;20037;-61
2021/04/28 03:30:00;;;;;;;13.07;7.78;;;;;;;19.21;48.13;100036.25;2063952;28;20022;-61
2021/04/28 03:31:01;;;;;;;13.65;7.80;;;;;;;19.22;47.82;100039.81;2066166;28;20022;-62
2021/04/28 03:32:03;;;;;;;15.05;8.10;;;;;;;19.22;47.78;100040.66;2072031;28;20405;-62
2021/04/28 03:33:05;;;;;;;12.90;7.40;;;;;;;19.22;47.93;100040.66;2064100;28;20026;-61
2021/04/28 03:34:05;;;;;;;10.15;6.95;;;;;;;19.22;48.10;100046.06;2071831;28;20492;-61
2021/04/28 03:35:07;;;;;;;12.82;7.68;;;;;;;19.21;47.73;100041.69;2070117;28;20034;-62
2021/04/28 03:36:07;;;;;;;11.80;7.70;;;;;;;19.22;48.09;100043.34;2063926;28;20022;-62
2021/04/28 03:37:15;;;;;;;13.02;7.05;;;;;;;19.20;48.27;100040.03;2064268;28;20066;-62
2021/04/28 03:38:19;;;;;;;15.18;7.90;;;;;;;19.20;48.14;100044.63;2063754;28;20544;-62
2021/04/28 03:39:20;;;;;;;11.52;7.50;;;;;;;19.21;48.31;100051.72;2064011;28;20018;-61
2021/04/28 03:40:21;;;;;;;12.35;7.15;;;;;;;19.21;48.21;100049.81;2068503;28;20041;-61
2021/04/28 03:41:23;;;;;;;14.70;7.60;;;;;;;19.22;48.64;100047.94;2072328;28;20531;-61
2021/04/28 03:42:24;;;;;;;12.10;7.03;;;;;;;19.20;48.24;100042.72;2088214;28;20098;-61
2021/04/28 03:43:27;;;;;;;26.70;7.55;;;;;;;19.20;48.28;100045.44;2080071;28;20018;-61
2021/04/28 03:44:28;;;;;;;12.00;7.28;;;;;;;19.22;48.43;100045.22;2062904;28;20419;-61
2021/04/28 03:45:31;;;;;;;11.40;6.78;;;;;;;19.21;48.10;100044.41;2061584;28;20073;-61
2021/04/28 03:46:32;;;;;;;13.68;7.78;;;;;;;19.25;48.18;100056.50;2069558;28;20037;-62
2021/04/28 03:47:33;;;;;;;15.63;7.43;;;;;;;19.25;48.19;100047.53;2079756;28;20045;-62
2021/04/28 03:48:34;;;;;;;12.85;7.35;;;;;;;19.23;48.09;100049.63;2075834;28;20076;-62
2021/04/28 03:49:35;;;;;;;12.60;7.70;;;;;;;19.22;48.02;100047.94;2072227;28;20026;-61
2021/04/28 03:50:36;;;;;;;11.02;7.38;;;;;;;19.18;48.13;100048.38;2071829;28;20026;-61
2021/04/28 03:51:38;;;;;;;12.85;7.53;;;;;;;19.17;47.96;100044.00;2063660;28;20026;-62
2021/04/28 03:52:58;;;;;;;11.52;7.13;;;;;;;19.19;48.13;100043.78;2071578;28;20446;-62
2021/04/28 03:54:15;;;;;;;12.57;7.75;;;;;;;19.20;48.22;100048.16;2071910;28;20068;-61
2021/04/28 03:55:16;;;;;;;10.73;6.38;;;;;;;19.18;48.65;100047.53;2064038;28;20146;-61
2021/04/28 03:56:17;;;;;;;11.98;6.85;;;;;;;19.18;48.51;100042.09;2063254;28;20077;-61
2021/04/28 03:57:18;;;;;;;11.35;7.13;;;;;;;19.20;48.42;100044.63;2066005;28;20109;-62
2021/04/28 03:58:19;;;;;;;12.45;7.97;;;;;;;19.23;47.99;100038.75;2071235;28;20033;-62
2021/04/28 03:59:22;;;;;;;10.88;6.97;;;;;;;19.22;48.06;100039.81;2071990;28;20014;-61
2021/04/28 04:00:28;;;;;;;14.18;7.97;;;;;;;19.22;47.66;100037.09;2071959;28;20037;-61
2021/04/28 04:01:41;;;;;;;17.98;8.48;;;;;;;19.19;48.06;100041.06;2071841;28;20037;-62
2021/04/28 04:02:43;;;;;;;12.35;7.75;;;;;;;19.17;48.05;100041.28;2079889;28;20488;-62
2021/04/28 04:04:13;;;;;;;12.35;7.70;;;;;;;19.15;48.28;100042.53;2080579;28;20056;-62
2021/04/28 04:05:32;;;;;;;14.07;8.30;;;;;;;19.14;48.48;100046.28;2070213;28;20065;-62
2021/04/28 04:06:42;;;;;;;13.00;7.22;;;;;;;19.14;48.27;100044.41;2071551;28;20473;-64
2021/04/28 04:07:50;;;;;;;15.13;7.75;;;;;;;19.14;47.92;100038.97;2071972;28;20045;-64
2021/04/28 04:09:04;;;;;;;16.65;8.70;;;;;;;19.16;47.86;100039.59;2072339;28;20072;-63
2021/04/28 04:10:05;;;;;;;15.98;8.73;;;;;;;19.15;47.90;100051.50;2071915;28;20073;-63
2021/04/28 04:11:06;;;;;;;12.10;7.72;;;;;;;19.15;48.05;100046.06;2071394;28;20037;-63
2021/04/28 04:12:08;;;;;;;12.80;7.50;;;;;;;19.14;48.08;100052.53;2071815;28;20405;-63
2021/04/28 04:13:23;;;;;;;14.15;7.45;;;;;;;19.14;48.25;100047.13;2071820;28;20038;-64
2021/04/28 04:14:23;;;;;;;12.50;7.45;;;;;;;19.12;47.95;100048.38;2071680;28;20033;-64
2021/04/28 04:15:26;;;;;;;12.10;8.25;;;;;;;19.14;47.91;100049.00;2071733;28;20096;-64
2021/04/28 04:16:29;;;;;;;12.07;7.25;;;;;;;19.15;48.33;100051.50;2068346;28;20093;-63
2021/04/28 04:17:29;;;;;;;12.57;7.70;;;;;;;19.17;48.22;100049.41;2071839;28;20097;-63
2021/04/28 04:18:49;;;;;;;14.73;7.72;;;;;;;19.15;47.74;100054.22;2068039;28;20128;-63
2021/04/28 04:19:51;;;;;;;11.05;6.93;;;;;;;19.17;48.23;100054.84;2071841;28;20516;-64
2021/04/28 04:21:08;;;;;;;10.32;6.78;;;;;;;19.18;48.01;100051.09;2065893;28;20457;-64
2021/04/28 04:22:10;;;;;;;12.40;7.57;;;;;;;19.17;48.30;100059.44;2071697;28;20058;-64
2021/04/28 04:23:24;;;;;;;12.85;6.90;;;;;;;19.15;48.13;100048.78;2071869;28;20041;-64
2021/04/28 04:24:34;;;;;;;;;;;;;;;19.14;48.14;100051.72;2072642;28;20112;-64
2021/04/28 04:25:45;;;;;;;14.73;7.65;;;;;;;19.15;47.82;100062.34;2068859;28;19960;-62
2021/04/28 04:27:00;;;;;;;11.77;7.93;;;;;;;19.13;47.96;100058.19;2060055;28;20038;-64
2021/04/28 04:28:19;;;;;;;11.18;7.15;;;;;;;19.17;47.96;100062.13;2070468;28;20045;-62
2021/04/28 04:29:34;;;;;;;12.90;7.03;;;;;;;19.17;48.37;100062.13;2072623;28;20026;-64
2021/04/28 04:31:13;;;;;;;11.27;6.97;;;;;;;19.17;48.34;100062.13;2047388;29;20487;-64
2021/04/28 04:32:33;;;;;;;13.15;6.97;;;;;;;19.16;47.76;100063.19;2046726;29;20102;-63
2021/04/28 04:33:52;;;;;;;14.57;7.93;;;;;;;19.15;47.82;100065.06;2047432;29;20043;-64
2021/04/28 04:35:11;;;;;;;14.10;9.25;;;;;;;19.12;47.26;100065.47;2047534;29;20035;-63
2021/04/28 04:36:31;;;;;;;12.50;8.15;;;;;;;19.11;47.82;100068.41;2049380;28;20526;-64
2021/04/28 04:37:50;;;;;;;14.38;8.45;;;;;;;19.11;47.68;100071.94;2072038;28;20385;-64
2021/04/28 04:39:05;;;;;;;16.40;9.02;;;;;;;19.12;47.32;100070.91;2072135;28;20030;-63
2021/04/28 04:40:18;;;;;;;15.27;9.65;;;;;;;19.09;47.62;100076.75;2071980;28;20030;-63
2021/04/28 04:41:44;;;;;;;13.40;8.68;;;;;;;19.12;47.96;100075.50;2068800;28;20406;-63
2021/04/28 04:42:55;;;;;;;13.38;8.40;;;;;;;19.14;47.66;100076.13;2063897;28;20050;-63
2021/04/28 04:44:24;;;;;;;13.52;8.50;;;;;;;19.14;47.34;100081.56;2068208;28;20026;-63
2021/04/28 04:45:37;;;;;;;15.85;9.02;;;;;;;19.13;47.18;100080.72;2069196;28;20042;-64
2021/04/28 04:46:37;;;;;;;13.90;9.25;;;;;;;19.13;47.53;100080.72;2069962;28;20953;-63
2021/04/28 04:47:38;;;;;;;12.88;8.63;;;;;;;19.16;47.44;100090.31;2069681;28;20073;-63
2021/04/28 04:48:39;;;;;;;15.90;9.60;;;;;;;19.15;46.99;100081.34;2071733;28;20041;-63
2021/04/28 04:49:42;;;;;;;14.00;8.27;;;;;;;19.12;47.55;100083.63;2072429;28;20034;-63
2021/04/28 04:50:42;;;;;;;14.23;9.52;;;;;;;19.12;47.08;100081.75;2072247;28;20038;-63
2021/04/28 04:51:43;;;;;;;13.30;8.63;;;;;;;19.13;46.94;100086.13;2072131;28;20025;-63
2021/04/28 04:52:43;;;;;;;14.45;9.20;;;;;;;19.14;46.90;100085.09;2072312;28;20045;-63
2021/04/28 04:53:44;;;;;;;15.27;10.00;;;;;;;19.14;47.16;100087.81;2072334;28;20046;-63
2021/04/28 04:54:44;;;;;;;16.02;10.05;;;;;;;19.15;47.08;100083.22;2071873;28;20061;-63
2021/04/28 04:55:45;;;;;;;14.70;9.48;;;;;;;19.15;47.12;100084.06;2072405;28;20041;-63
2021/04/28 04:56:45;;;;;;;15.25;8.75;;;;;;;19.17;46.97;100090.09;2072283;28;20061;-63
2021/04/28 04:57:46;;;;;;;13.07;8.90;;;;;;;19.16;47.13;100088.44;2071902;28;20397;-63